FMMI/TNR METAR and TAF weather

Enter ICAO airport designator
Station Type Date Time Source
FMMI METAR 2022/10/01 08:30 UTC NOAA

FMMI 010830Z VRB05KT 9999 FEW020 25/08 Q1022 NOSIG


Station Type Date Time Source
FMMI Decoded METAR 2022/10/01 08:30 UTC NOAA

Antananarivo / Ivato, Madagascar (FMMI) 18-48S 047-29E 1276M
Oct 01, 2022 - 04:30 AM EDT / 2022.10.01 0830 UTC
Wind: Variable at 6 MPH (5 KT):0
Visibility: greater than 7 mile(s):0
Sky conditions: mostly clear
Temperature: 77 F (25 C)
Dew Point: 46 F (8 C)
Relative Humidity: 33%
Pressure (altimeter): 30.18 in. Hg (1022 hPa)
ob: FMMI 010830Z VRB05KT 9999 FEW020 25/08 Q1022 NOSIG
cycle: 8

Station Type Date Time Source
FMMI TAF 2022/10/01 06:06 UTC NOAA

TAF FMMI 010500Z 0106/0212 12005KT 9999 SCT020
BECMG 0107/0109 12015KT
BECMG 0116/0118 12005KT PROB30 0200/0205 1500 BR BKN006

Example: see airport list